KAVX/AVX METAR and TAF weather

Enter ICAO airport designator
Station Type Date Time Source
KAVX METAR 2019/04/18 09:51 UTC NOAA

KAVX 180951Z AUTO 29003KT 10SM CLR 18/00 A3012 RMK AO2 SLP183 T01780000


Station Type Date Time Source
KAVX Decoded METAR 2019/04/18 09:51 UTC NOAA

AVALON CATALINA AIRPORT, CA, United States (KAVX) 33-24N 118-25W 482M
Apr 18, 2019 - 05:51 AM EDT / 2019.04.18 0951 UTC
Wind: from the WNW (290 degrees) at 3 MPH (3 KT):0
Visibility: 10 mile(s):0
Sky conditions: clear
Temperature: 64.0 F (17.8 C)
Dew Point: 32.0 F (0.0 C)
Relative Humidity: 29%
Pressure (altimeter): 30.12 in. Hg (1019 hPa)
ob: KAVX 180951Z AUTO 29003KT 10SM CLR 18/00 A3012 RMK AO2 SLP183 T01780000
cycle: 10

Station Type Date Time Source
KAVX TAF UTC NOAA

Error!

Example: see airport list